< < Back
Terminal Aerodrome Forecast


Current Version              Previous Versions:   1  2  3  4  5  6  7  8  9  

Terminal Aerodrome Forecast

934
FTUS44 KMRX 262320
TAFTYS
TAF
KTYS 262320Z 2700/2724 24006KT P6SM BKN035
     FM270600 29007KT P6SM OVC010
     FM271500 33012KT P6SM OVC020
     FM271800 01010KT P6SM BKN040=



Latest METAR

342
SAUS80 KWBC 270020
MTRTYS
METAR KTYS 262353Z COR 19005KT 10SM OVC044 02/M01 A3009 RMK AO2 SLP194
4/003 T00171011 10022 20011 51026


USA.gov is the U.S. government's official web portal to all federal, state and local government web resources and services.